sensor_id;sensor_type;location;lat;lon;timestamp;P1;durP1;ratioP1;P2;durP2;ratioP2
18879;SDS011;9572;52.378;13.404;2023-08-12T00:01:42;2.67;;;2.47;;
18879;SDS011;9572;52.378;13.404;2023-08-12T00:04:09;3.40;;;2.85;;
18879;SDS011;9572;52.378;13.404;2023-08-12T00:06:41;3.00;;;2.67;;
18879;SDS011;9572;52.378;13.404;2023-08-12T00:09:08;2.70;;;2.50;;
18879;SDS011;9572;52.378;13.404;2023-08-12T00:11:36;3.05;;;2.75;;
18879;SDS011;9572;52.378;13.404;2023-08-12T00:14:03;3.58;;;2.92;;
18879;SDS011;9572;52.378;13.404;2023-08-12T00:16:30;3.10;;;2.80;;
18879;SDS011;9572;52.378;13.404;2023-08-12T00:18:57;3.47;;;3.17;;
18879;SDS011;9572;52.378;13.404;2023-08-12T00:21:25;3.08;;;2.70;;
18879;SDS011;9572;52.378;13.404;2023-08-12T00:23:54;3.20;;;2.80;;
18879;SDS011;9572;52.378;13.404;2023-08-12T00:26:21;4.95;;;3.67;;
18879;SDS011;9572;52.378;13.404;2023-08-12T00:28:48;6.10;;;2.90;;
18879;SDS011;9572;52.378;13.404;2023-08-12T00:31:16;3.53;;;3.05;;
18879;SDS011;9572;52.378;13.404;2023-08-12T00:33:43;5.10;;;3.03;;
18879;SDS011;9572;52.378;13.404;2023-08-12T00:36:10;3.17;;;2.97;;
18879;SDS011;9572;52.378;13.404;2023-08-12T00:38:38;3.10;;;2.70;;
18879;SDS011;9572;52.378;13.404;2023-08-12T00:41:06;4.72;;;2.90;;
18879;SDS011;9572;52.378;13.404;2023-08-12T00:43:32;3.25;;;2.92;;
18879;SDS011;9572;52.378;13.404;2023-08-12T00:45:59;4.00;;;2.65;;
18879;SDS011;9572;52.378;13.404;2023-08-12T00:48:26;5.57;;;3.28;;
18879;SDS011;9572;52.378;13.404;2023-08-12T00:50:53;3.38;;;2.83;;
18879;SDS011;9572;52.378;13.404;2023-08-12T00:53:20;2.90;;;2.70;;
18879;SDS011;9572;52.378;13.404;2023-08-12T00:55:47;3.78;;;3.00;;
18879;SDS011;9572;52.378;13.404;2023-08-12T00:58:16;3.13;;;2.75;;
18879;SDS011;9572;52.378;13.404;2023-08-12T01:00:43;2.88;;;2.67;;
18879;SDS011;9572;52.378;13.404;2023-08-12T01:03:10;3.42;;;2.70;;
18879;SDS011;9572;52.378;13.404;2023-08-12T01:05:37;3.53;;;2.90;;
18879;SDS011;9572;52.378;13.404;2023-08-12T01:08:05;3.15;;;2.72;;
18879;SDS011;9572;52.378;13.404;2023-08-12T01:10:33;4.35;;;2.88;;
18879;SDS011;9572;52.378;13.404;2023-08-12T01:13:06;3.47;;;3.10;;
18879;SDS011;9572;52.378;13.404;2023-08-12T01:15:40;3.58;;;2.88;;
18879;SDS011;9572;52.378;13.404;2023-08-12T01:18:09;4.10;;;3.33;;
18879;SDS011;9572;52.378;13.404;2023-08-12T01:20:37;5.57;;;3.10;;
18879;SDS011;9572;52.378;13.404;2023-08-12T01:23:12;4.47;;;2.92;;
18879;SDS011;9572;52.378;13.404;2023-08-12T01:25:40;4.50;;;2.92;;
18879;SDS011;9572;52.378;13.404;2023-08-12T01:28:08;3.20;;;2.88;;
18879;SDS011;9572;52.378;13.404;2023-08-12T01:30:35;3.10;;;2.90;;
18879;SDS011;9572;52.378;13.404;2023-08-12T01:33:12;4.28;;;3.20;;
18879;SDS011;9572;52.378;13.404;2023-08-12T01:35:47;3.35;;;2.58;;
18879;SDS011;9572;52.378;13.404;2023-08-12T01:38:22;3.38;;;2.60;;
18879;SDS011;9572;52.378;13.404;2023-08-12T01:40:54;5.43;;;3.20;;
18879;SDS011;9572;52.378;13.404;2023-08-12T01:43:22;7.93;;;3.13;;
18879;SDS011;9572;52.378;13.404;2023-08-12T01:45:49;4.82;;;2.88;;
18879;SDS011;9572;52.378;13.404;2023-08-12T01:48:16;5.57;;;3.58;;
18879;SDS011;9572;52.378;13.404;2023-08-12T01:50:45;4.10;;;2.70;;
18879;SDS011;9572;52.378;13.404;2023-08-12T01:53:13;3.53;;;2.83;;
18879;SDS011;9572;52.378;13.404;2023-08-12T01:55:42;5.88;;;3.10;;
18879;SDS011;9572;52.378;13.404;2023-08-12T01:58:10;4.68;;;2.97;;
18879;SDS011;9572;52.378;13.404;2023-08-12T02:00:37;3.20;;;2.90;;
18879;SDS011;9572;52.378;13.404;2023-08-12T02:03:04;3.67;;;2.83;;
18879;SDS011;9572;52.378;13.404;2023-08-12T02:05:31;3.08;;;2.88;;
18879;SDS011;9572;52.378;13.404;2023-08-12T02:07:58;2.85;;;2.65;;
18879;SDS011;9572;52.378;13.404;2023-08-12T02:10:25;3.05;;;2.78;;
18879;SDS011;9572;52.378;13.404;2023-08-12T02:12:54;5.25;;;3.30;;
18879;SDS011;9572;52.378;13.404;2023-08-12T02:15:21;4.90;;;2.65;;
18879;SDS011;9572;52.378;13.404;2023-08-12T02:17:48;3.22;;;2.70;;
18879;SDS011;9572;52.378;13.404;2023-08-12T02:20:15;4.38;;;2.95;;
18879;SDS011;9572;52.378;13.404;2023-08-12T02:22:43;4.47;;;3.03;;
18879;SDS011;9572;52.378;13.404;2023-08-12T02:25:10;3.30;;;3.00;;
18879;SDS011;9572;52.378;13.404;2023-08-12T02:27:37;3.40;;;3.08;;
18879;SDS011;9572;52.378;13.404;2023-08-12T02:30:06;3.33;;;3.03;;
18879;SDS011;9572;52.378;13.404;2023-08-12T02:32:34;2.90;;;2.70;;
18879;SDS011;9572;52.378;13.404;2023-08-12T02:35:01;5.25;;;3.30;;
18879;SDS011;9572;52.378;13.404;2023-08-12T02:37:28;5.75;;;3.25;;
18879;SDS011;9572;52.378;13.404;2023-08-12T02:39:55;5.15;;;2.95;;
18879;SDS011;9572;52.378;13.404;2023-08-12T02:42:22;4.05;;;3.03;;
18879;SDS011;9572;52.378;13.404;2023-08-12T02:44:49;3.50;;;3.20;;
18879;SDS011;9572;52.378;13.404;2023-08-12T02:47:17;5.05;;;3.17;;
18879;SDS011;9572;52.378;13.404;2023-08-12T02:49:44;5.18;;;3.35;;
18879;SDS011;9572;52.378;13.404;2023-08-12T02:52:11;3.50;;;3.20;;
18879;SDS011;9572;52.378;13.404;2023-08-12T02:54:38;3.55;;;2.90;;
18879;SDS011;9572;52.378;13.404;2023-08-12T02:57:05;2.97;;;2.60;;
18879;SDS011;9572;52.378;13.404;2023-08-12T02:59:32;4.10;;;2.88;;
18879;SDS011;9572;52.378;13.404;2023-08-12T03:01:59;4.90;;;2.88;;
18879;SDS011;9572;52.378;13.404;2023-08-12T03:04:27;3.60;;;3.10;;
18879;SDS011;9572;52.378;13.404;2023-08-12T03:06:55;7.22;;;3.05;;
18879;SDS011;9572;52.378;13.404;2023-08-12T03:09:22;3.90;;;2.83;;
18879;SDS011;9572;52.378;13.404;2023-08-12T03:11:49;3.58;;;3.28;;
18879;SDS011;9572;52.378;13.404;2023-08-12T03:14:17;4.13;;;2.85;;
18879;SDS011;9572;52.378;13.404;2023-08-12T03:16:44;3.30;;;2.63;;
18879;SDS011;9572;52.378;13.404;2023-08-12T03:19:11;5.57;;;2.90;;
18879;SDS011;9572;52.378;13.404;2023-08-12T03:21:39;2.97;;;2.67;;
18879;SDS011;9572;52.378;13.404;2023-08-12T03:24:06;3.53;;;2.60;;
18879;SDS011;9572;52.378;13.404;2023-08-12T03:26:33;3.22;;;2.80;;
18879;SDS011;9572;52.378;13.404;2023-08-12T03:29:00;3.58;;;3.28;;
18879;SDS011;9572;52.378;13.404;2023-08-12T03:31:27;3.60;;;3.30;;
18879;SDS011;9572;52.378;13.404;2023-08-12T03:33:53;5.70;;;2.80;;
18879;SDS011;9572;52.378;13.404;2023-08-12T03:36:20;4.25;;;3.55;;
18879;SDS011;9572;52.378;13.404;2023-08-12T03:38:49;3.63;;;3.28;;
18879;SDS011;9572;52.378;13.404;2023-08-12T03:41:16;5.63;;;3.20;;
18879;SDS011;9572;52.378;13.404;2023-08-12T03:43:47;4.63;;;3.50;;
18879;SDS011;9572;52.378;13.404;2023-08-12T03:46:19;4.30;;;2.90;;
18879;SDS011;9572;52.378;13.404;2023-08-12T03:48:47;3.85;;;3.30;;
18879;SDS011;9572;52.378;13.404;2023-08-12T03:51:15;3.50;;;3.20;;
18879;SDS011;9572;52.378;13.404;2023-08-12T03:53:52;4.25;;;3.40;;
18879;SDS011;9572;52.378;13.404;2023-08-12T03:56:27;3.58;;;3.20;;
18879;SDS011;9572;52.378;13.404;2023-08-12T03:58:56;4.50;;;3.30;;
18879;SDS011;9572;52.378;13.404;2023-08-12T04:01:25;4.85;;;3.50;;
18879;SDS011;9572;52.378;13.404;2023-08-12T04:03:57;6.25;;;3.80;;
18879;SDS011;9572;52.378;13.404;2023-08-12T04:06:26;5.53;;;3.45;;
18879;SDS011;9572;52.378;13.404;2023-08-12T04:09:01;5.55;;;3.55;;
18879;SDS011;9572;52.378;13.404;2023-08-12T04:11:29;4.60;;;3.75;;
18879;SDS011;9572;52.378;13.404;2023-08-12T04:13:56;4.65;;;3.15;;
18879;SDS011;9572;52.378;13.404;2023-08-12T04:16:25;4.43;;;3.50;;
18879;SDS011;9572;52.378;13.404;2023-08-12T04:18:56;13.00;;;3.90;;
18879;SDS011;9572;52.378;13.404;2023-08-12T04:21:25;5.72;;;3.65;;
18879;SDS011;9572;52.378;13.404;2023-08-12T04:23:55;6.90;;;3.80;;
18879;SDS011;9572;52.378;13.404;2023-08-12T04:26:28;4.63;;;3.90;;
18879;SDS011;9572;52.378;13.404;2023-08-12T04:28:55;5.30;;;3.65;;
18879;SDS011;9572;52.378;13.404;2023-08-12T04:31:27;5.03;;;3.35;;
18879;SDS011;9572;52.378;13.404;2023-08-12T04:33:55;3.67;;;3.30;;
18879;SDS011;9572;52.378;13.404;2023-08-12T04:36:26;4.70;;;3.58;;
18879;SDS011;9572;52.378;13.404;2023-08-12T04:38:55;6.43;;;3.85;;
18879;SDS011;9572;52.378;13.404;2023-08-12T04:41:28;4.35;;;3.75;;
18879;SDS011;9572;52.378;13.404;2023-08-12T04:43:56;6.82;;;4.35;;
18879;SDS011;9572;52.378;13.404;2023-08-12T04:46:26;3.85;;;3.55;;
18879;SDS011;9572;52.378;13.404;2023-08-12T04:48:55;3.92;;;3.63;;
18879;SDS011;9572;52.378;13.404;2023-08-12T04:51:26;5.40;;;3.72;;
18879;SDS011;9572;52.378;13.404;2023-08-12T04:54:02;4.18;;;3.40;;
18879;SDS011;9572;52.378;13.404;2023-08-12T04:56:29;4.78;;;3.30;;
18879;SDS011;9572;52.378;13.404;2023-08-12T04:58:56;4.07;;;3.67;;
18879;SDS011;9572;52.378;13.404;2023-08-12T05:01:25;4.68;;;3.75;;
18879;SDS011;9572;52.378;13.404;2023-08-12T05:03:56;4.03;;;3.50;;
18879;SDS011;9572;52.378;13.404;2023-08-12T05:06:25;4.20;;;3.80;;
18879;SDS011;9572;52.378;13.404;2023-08-12T05:09:01;5.03;;;3.58;;
18879;SDS011;9572;52.378;13.404;2023-08-12T05:11:29;4.35;;;3.95;;
18879;SDS011;9572;52.378;13.404;2023-08-12T05:13:56;4.45;;;3.75;;
18879;SDS011;9572;52.378;13.404;2023-08-12T05:16:26;4.82;;;3.45;;
18879;SDS011;9572;52.378;13.404;2023-08-12T05:18:55;4.43;;;3.40;;
18879;SDS011;9572;52.378;13.404;2023-08-12T05:21:26;4.70;;;4.00;;
18879;SDS011;9572;52.378;13.404;2023-08-12T05:24:00;4.65;;;3.40;;
18879;SDS011;9572;52.378;13.404;2023-08-12T05:26:27;5.82;;;3.70;;
18879;SDS011;9572;52.378;13.404;2023-08-12T05:28:55;5.05;;;3.90;;
18879;SDS011;9572;52.378;13.404;2023-08-12T05:31:30;8.63;;;4.20;;
18879;SDS011;9572;52.378;13.404;2023-08-12T05:33:57;6.63;;;3.97;;
18879;SDS011;9572;52.378;13.404;2023-08-12T05:36:26;6.68;;;4.10;;
18879;SDS011;9572;52.378;13.404;2023-08-12T05:38:55;6.93;;;3.33;;
18879;SDS011;9572;52.378;13.404;2023-08-12T05:41:28;9.30;;;3.78;;
18879;SDS011;9572;52.378;13.404;2023-08-12T05:43:56;5.25;;;3.55;;
18879;SDS011;9572;52.378;13.404;2023-08-12T05:46:25;8.48;;;3.83;;
18879;SDS011;9572;52.378;13.404;2023-08-12T05:48:55;8.25;;;3.83;;
18879;SDS011;9572;52.378;13.404;2023-08-12T05:51:26;6.35;;;3.50;;
18879;SDS011;9572;52.378;13.404;2023-08-12T05:53:55;9.68;;;3.40;;
18879;SDS011;9572;52.378;13.404;2023-08-12T05:56:29;4.78;;;3.22;;
18879;SDS011;9572;52.378;13.404;2023-08-12T05:58:56;4.63;;;3.03;;
18879;SDS011;9572;52.378;13.404;2023-08-12T06:01:26;4.88;;;3.10;;
18879;SDS011;9572;52.378;13.404;2023-08-12T06:03:56;3.72;;;3.35;;
18879;SDS011;9572;52.378;13.404;2023-08-12T06:06:25;4.40;;;2.97;;
18879;SDS011;9572;52.378;13.404;2023-08-12T06:08:56;3.47;;;3.17;;
18879;SDS011;9572;52.378;13.404;2023-08-12T06:11:28;4.72;;;3.22;;
18879;SDS011;9572;52.378;13.404;2023-08-12T06:13:55;5.88;;;3.58;;
18879;SDS011;9572;52.378;13.404;2023-08-12T06:16:26;5.45;;;3.25;;
18879;SDS011;9572;52.378;13.404;2023-08-12T06:18:55;5.00;;;3.15;;
18879;SDS011;9572;52.378;13.404;2023-08-12T06:21:26;6.68;;;3.65;;
18879;SDS011;9572;52.378;13.404;2023-08-12T06:23:55;7.20;;;3.40;;
18879;SDS011;9572;52.378;13.404;2023-08-12T06:26:32;7.13;;;3.75;;
18879;SDS011;9572;52.378;13.404;2023-08-12T06:28:59;5.70;;;3.38;;
18879;SDS011;9572;52.378;13.404;2023-08-12T06:31:26;8.18;;;3.38;;
18879;SDS011;9572;52.378;13.404;2023-08-12T06:33:55;3.60;;;3.03;;
18879;SDS011;9572;52.378;13.404;2023-08-12T06:36:27;5.95;;;3.33;;
18879;SDS011;9572;52.378;13.404;2023-08-12T06:38:56;7.32;;;3.22;;
18879;SDS011;9572;52.378;13.404;2023-08-12T06:41:25;4.20;;;3.22;;
18879;SDS011;9572;52.378;13.404;2023-08-12T06:44:10;5.90;;;3.10;;
18879;SDS011;9572;52.378;13.404;2023-08-12T06:46:37;4.20;;;3.30;;
18879;SDS011;9572;52.378;13.404;2023-08-12T06:49:05;3.63;;;3.03;;
18879;SDS011;9572;52.378;13.404;2023-08-12T06:51:36;7.40;;;3.63;;
18879;SDS011;9572;52.378;13.404;2023-08-12T06:54:05;4.45;;;3.53;;
18879;SDS011;9572;52.378;13.404;2023-08-12T06:56:37;6.63;;;3.58;;
18879;SDS011;9572;52.378;13.404;2023-08-12T06:59:06;5.82;;;3.75;;
18879;SDS011;9572;52.378;13.404;2023-08-12T07:01:41;5.43;;;3.17;;
18879;SDS011;9572;52.378;13.404;2023-08-12T07:04:08;5.90;;;3.40;;
18879;SDS011;9572;52.378;13.404;2023-08-12T07:06:35;4.80;;;3.22;;
18879;SDS011;9572;52.378;13.404;2023-08-12T07:09:06;4.75;;;3.35;;
18879;SDS011;9572;52.378;13.404;2023-08-12T07:11:35;5.97;;;3.60;;
18879;SDS011;9572;52.378;13.404;2023-08-12T07:14:06;4.97;;;3.53;;
18879;SDS011;9572;52.378;13.404;2023-08-12T07:16:35;3.20;;;2.83;;
18879;SDS011;9572;52.378;13.404;2023-08-12T07:19:08;7.07;;;3.17;;
18879;SDS011;9572;52.378;13.404;2023-08-12T07:21:35;4.75;;;3.28;;
18879;SDS011;9572;52.378;13.404;2023-08-12T07:24:05;5.72;;;3.15;;
18879;SDS011;9572;52.378;13.404;2023-08-12T07:26:36;4.88;;;3.20;;
18879;SDS011;9572;52.378;13.404;2023-08-12T07:29:06;5.35;;;3.20;;
18879;SDS011;9572;52.378;13.404;2023-08-12T07:31:42;3.50;;;3.15;;
18879;SDS011;9572;52.378;13.404;2023-08-12T07:34:09;3.47;;;2.80;;
18879;SDS011;9572;52.378;13.404;2023-08-12T07:36:38;6.68;;;3.30;;
18879;SDS011;9572;52.378;13.404;2023-08-12T07:39:06;3.80;;;3.17;;
18879;SDS011;9572;52.378;13.404;2023-08-12T07:41:38;4.85;;;3.10;;
18879;SDS011;9572;52.378;13.404;2023-08-12T07:44:07;4.13;;;2.60;;
18879;SDS011;9572;52.378;13.404;2023-08-12T07:46:41;5.25;;;3.42;;
18879;SDS011;9572;52.378;13.404;2023-08-12T07:49:08;5.55;;;3.20;;
18879;SDS011;9572;52.378;13.404;2023-08-12T07:51:36;6.10;;;3.05;;
18879;SDS011;9572;52.378;13.404;2023-08-12T07:54:07;6.55;;;3.55;;
18879;SDS011;9572;52.378;13.404;2023-08-12T07:56:35;3.75;;;3.03;;
18879;SDS011;9572;52.378;13.404;2023-08-12T07:59:06;5.20;;;3.00;;
18879;SDS011;9572;52.378;13.404;2023-08-12T08:01:35;3.60;;;3.00;;
18879;SDS011;9572;52.378;13.404;2023-08-12T08:04:08;6.43;;;3.50;;
18879;SDS011;9572;52.378;13.404;2023-08-12T08:06:35;4.18;;;3.00;;
18879;SDS011;9572;52.378;13.404;2023-08-12T08:09:06;4.57;;;2.90;;
18879;SDS011;9572;52.378;13.404;2023-08-12T08:11:36;6.25;;;3.38;;
18879;SDS011;9572;52.378;13.404;2023-08-12T08:14:06;5.22;;;3.50;;
18879;SDS011;9572;52.378;13.404;2023-08-12T08:16:42;11.88;;;3.15;;
18879;SDS011;9572;52.378;13.404;2023-08-12T08:19:09;6.07;;;2.92;;
18879;SDS011;9572;52.378;13.404;2023-08-12T08:21:36;3.63;;;2.53;;
18879;SDS011;9572;52.378;13.404;2023-08-12T08:24:07;6.75;;;3.20;;
18879;SDS011;9572;52.378;13.404;2023-08-12T08:26:38;6.97;;;3.50;;
18879;SDS011;9572;52.378;13.404;2023-08-12T08:29:06;4.07;;;3.08;;
18879;SDS011;9572;52.378;13.404;2023-08-12T08:31:42;9.63;;;3.30;;
18879;SDS011;9572;52.378;13.404;2023-08-12T08:34:09;4.38;;;3.17;;
18879;SDS011;9572;52.378;13.404;2023-08-12T08:36:36;4.32;;;2.95;;
18879;SDS011;9572;52.378;13.404;2023-08-12T08:39:06;5.25;;;3.25;;
18879;SDS011;9572;52.378;13.404;2023-08-12T08:41:38;3.55;;;3.20;;
18879;SDS011;9572;52.378;13.404;2023-08-12T08:44:06;4.25;;;3.15;;
18879;SDS011;9572;52.378;13.404;2023-08-12T08:46:36;3.75;;;3.10;;
18879;SDS011;9572;52.378;13.404;2023-08-12T08:49:09;5.43;;;3.28;;
18879;SDS011;9572;52.378;13.404;2023-08-12T08:51:38;4.43;;;3.30;;
18879;SDS011;9572;52.378;13.404;2023-08-12T08:54:06;6.65;;;3.20;;
18879;SDS011;9572;52.378;13.404;2023-08-12T08:56:36;4.20;;;3.28;;
18879;SDS011;9572;52.378;13.404;2023-08-12T08:59:06;6.65;;;3.20;;
18879;SDS011;9572;52.378;13.404;2023-08-12T09:01:36;3.70;;;2.80;;
18879;SDS011;9572;52.378;13.404;2023-08-12T09:04:14;5.78;;;3.65;;
18879;SDS011;9572;52.378;13.404;2023-08-12T09:06:49;3.70;;;3.30;;
18879;SDS011;9572;52.378;13.404;2023-08-12T09:09:17;4.13;;;3.22;;
18879;SDS011;9572;52.378;13.404;2023-08-12T09:11:47;6.40;;;3.58;;
18879;SDS011;9572;52.378;13.404;2023-08-12T09:14:16;7.10;;;3.42;;
18879;SDS011;9572;52.378;13.404;2023-08-12T09:16:48;4.18;;;3.40;;
18879;SDS011;9572;52.378;13.404;2023-08-12T09:19:21;3.88;;;3.05;;
18879;SDS011;9572;52.378;13.404;2023-08-12T09:21:51;3.70;;;3.13;;
18879;SDS011;9572;52.378;13.404;2023-08-12T09:24:23;3.67;;;3.22;;
18879;SDS011;9572;52.378;13.404;2023-08-12T09:26:51;5.95;;;3.47;;
18879;SDS011;9572;52.378;13.404;2023-08-12T09:29:18;5.35;;;3.35;;
18879;SDS011;9572;52.378;13.404;2023-08-12T09:31:48;3.78;;;3.08;;
18879;SDS011;9572;52.378;13.404;2023-08-12T09:34:22;3.90;;;3.53;;
18879;SDS011;9572;52.378;13.404;2023-08-12T09:36:51;5.88;;;3.40;;
18879;SDS011;9572;52.378;13.404;2023-08-12T09:39:18;3.25;;;2.95;;
18879;SDS011;9572;52.378;13.404;2023-08-12T09:41:46;3.95;;;3.03;;
18879;SDS011;9572;52.378;13.404;2023-08-12T09:44:16;5.82;;;3.70;;
18879;SDS011;9572;52.378;13.404;2023-08-12T09:46:47;4.90;;;3.13;;
18879;SDS011;9572;52.378;13.404;2023-08-12T09:49:31;4.15;;;3.72;;
18879;SDS011;9572;52.378;13.404;2023-08-12T09:51:58;4.95;;;3.50;;
18879;SDS011;9572;52.378;13.404;2023-08-12T09:54:27;6.82;;;3.40;;
18879;SDS011;9572;52.378;13.404;2023-08-12T09:56:57;3.92;;;3.30;;
18879;SDS011;9572;52.378;13.404;2023-08-12T09:59:27;4.90;;;3.40;;
18879;SDS011;9572;52.378;13.404;2023-08-12T10:01:57;6.45;;;3.78;;
18879;SDS011;9572;52.378;13.404;2023-08-12T10:04:32;7.05;;;3.33;;
18879;SDS011;9572;52.378;13.404;2023-08-12T10:07:09;5.28;;;3.15;;
18879;SDS011;9572;52.378;13.404;2023-08-12T10:09:38;5.72;;;3.17;;
18879;SDS011;9572;52.378;13.404;2023-08-12T10:12:06;4.97;;;3.60;;
18879;SDS011;9572;52.378;13.404;2023-08-12T10:14:36;6.00;;;3.47;;
18879;SDS011;9572;52.378;13.404;2023-08-12T10:17:08;8.00;;;3.42;;
18879;SDS011;9572;52.378;13.404;2023-08-12T10:19:42;3.25;;;3.00;;
18879;SDS011;9572;52.378;13.404;2023-08-12T10:22:11;5.32;;;3.47;;
18879;SDS011;9572;52.378;13.404;2023-08-12T10:24:39;4.85;;;3.72;;
18879;SDS011;9572;52.378;13.404;2023-08-12T10:27:09;4.20;;;3.42;;
18879;SDS011;9572;52.378;13.404;2023-08-12T10:29:38;8.05;;;3.28;;
18879;SDS011;9572;52.378;13.404;2023-08-12T10:32:05;4.05;;;3.65;;
18879;SDS011;9572;52.378;13.404;2023-08-12T10:34:32;5.18;;;3.70;;
18879;SDS011;9572;52.378;13.404;2023-08-12T10:37:01;6.32;;;3.53;;
18879;SDS011;9572;52.378;13.404;2023-08-12T10:39:29;7.80;;;3.95;;
18879;SDS011;9572;52.378;13.404;2023-08-12T10:41:58;7.63;;;3.33;;
18879;SDS011;9572;52.378;13.404;2023-08-12T10:44:26;5.32;;;3.75;;
18879;SDS011;9572;52.378;13.404;2023-08-12T10:46:53;5.20;;;3.67;;
18879;SDS011;9572;52.378;13.404;2023-08-12T10:49:21;7.43;;;3.67;;
18879;SDS011;9572;52.378;13.404;2023-08-12T10:51:48;3.80;;;3.30;;
18879;SDS011;9572;52.378;13.404;2023-08-12T10:54:20;6.35;;;3.60;;
18879;SDS011;9572;52.378;13.404;2023-08-12T10:57:06;5.00;;;3.33;;
18879;SDS011;9572;52.378;13.404;2023-08-12T10:59:51;4.53;;;3.30;;
18879;SDS011;9572;52.378;13.404;2023-08-12T11:02:20;3.42;;;2.90;;
18879;SDS011;9572;52.378;13.404;2023-08-12T11:04:49;5.43;;;3.20;;
18879;SDS011;9572;52.378;13.404;2023-08-12T11:07:18;3.35;;;3.00;;
18879;SDS011;9572;52.378;13.404;2023-08-12T11:09:52;3.17;;;2.85;;
18879;SDS011;9572;52.378;13.404;2023-08-12T11:12:27;4.32;;;3.00;;
18879;SDS011;9572;52.378;13.404;2023-08-12T11:14:57;3.92;;;2.78;;
18879;SDS011;9572;52.378;13.404;2023-08-12T11:17:28;3.42;;;3.05;;
18879;SDS011;9572;52.378;13.404;2023-08-12T11:19:59;4.10;;;2.95;;
18879;SDS011;9572;52.378;13.404;2023-08-12T11:22:29;3.05;;;2.78;;
18879;SDS011;9572;52.378;13.404;2023-08-12T11:24:58;3.30;;;2.92;;
18879;SDS011;9572;52.378;13.404;2023-08-12T11:27:24;2.80;;;2.60;;
18879;SDS011;9572;52.378;13.404;2023-08-12T11:29:51;3.28;;;2.53;;
18879;SDS011;9572;52.378;13.404;2023-08-12T11:32:19;3.30;;;3.00;;
18879;SDS011;9572;52.378;13.404;2023-08-12T11:34:46;3.75;;;3.10;;
18879;SDS011;9572;52.378;13.404;2023-08-12T11:37:13;3.45;;;3.00;;
18879;SDS011;9572;52.378;13.404;2023-08-12T11:39:40;3.50;;;3.05;;
18879;SDS011;9572;52.378;13.404;2023-08-12T11:42:09;4.03;;;2.60;;
18879;SDS011;9572;52.378;13.404;2023-08-12T11:44:36;4.97;;;2.90;;
18879;SDS011;9572;52.378;13.404;2023-08-12T11:47:03;4.38;;;3.28;;
18879;SDS011;9572;52.378;13.404;2023-08-12T11:49:30;3.92;;;3.10;;
18879;SDS011;9572;52.378;13.404;2023-08-12T11:51:57;3.60;;;3.25;;
18879;SDS011;9572;52.378;13.404;2023-08-12T11:54:24;3.45;;;3.15;;
18879;SDS011;9572;52.378;13.404;2023-08-12T11:56:52;5.95;;;3.33;;
18879;SDS011;9572;52.378;13.404;2023-08-12T11:59:22;4.68;;;3.42;;
18879;SDS011;9572;52.378;13.404;2023-08-12T12:01:49;4.65;;;3.58;;
18879;SDS011;9572;52.378;13.404;2023-08-12T12:04:16;6.28;;;3.38;;
18879;SDS011;9572;52.378;13.404;2023-08-12T12:06:46;5.45;;;3.75;;
18879;SDS011;9572;52.378;13.404;2023-08-12T12:09:13;3.58;;;2.97;;
18879;SDS011;9572;52.378;13.404;2023-08-12T12:11:43;4.53;;;3.58;;
18879;SDS011;9572;52.378;13.404;2023-08-12T12:14:10;4.22;;;3.38;;
18879;SDS011;9572;52.378;13.404;2023-08-12T12:16:39;3.88;;;3.58;;
18879;SDS011;9572;52.378;13.404;2023-08-12T12:19:09;6.57;;;3.95;;
18879;SDS011;9572;52.378;13.404;2023-08-12T12:21:39;8.15;;;3.53;;
18879;SDS011;9572;52.378;13.404;2023-08-12T12:24:07;4.45;;;3.80;;
18879;SDS011;9572;52.378;13.404;2023-08-12T12:26:34;4.88;;;3.55;;
18879;SDS011;9572;52.378;13.404;2023-08-12T12:29:02;4.60;;;3.72;;
18879;SDS011;9572;52.378;13.404;2023-08-12T12:31:31;5.88;;;3.65;;
18879;SDS011;9572;52.378;13.404;2023-08-12T12:34:01;3.70;;;3.30;;
18879;SDS011;9572;52.378;13.404;2023-08-12T12:36:29;4.22;;;3.80;;
18879;SDS011;9572;52.378;13.404;2023-08-12T12:38:56;8.82;;;4.78;;
18879;SDS011;9572;52.378;13.404;2023-08-12T12:41:23;6.60;;;5.70;;
18879;SDS011;9572;52.378;13.404;2023-08-12T12:43:50;6.70;;;6.00;;
18879;SDS011;9572;52.378;13.404;2023-08-12T12:46:16;10.38;;;6.38;;
18879;SDS011;9572;52.378;13.404;2023-08-12T12:48:43;10.32;;;5.50;;
18879;SDS011;9572;52.378;13.404;2023-08-12T12:51:12;4.45;;;4.05;;
18879;SDS011;9572;52.378;13.404;2023-08-12T12:53:40;9.95;;;3.70;;
18879;SDS011;9572;52.378;13.404;2023-08-12T12:56:07;4.40;;;3.72;;
18879;SDS011;9572;52.378;13.404;2023-08-12T12:58:34;4.05;;;3.47;;
18879;SDS011;9572;52.378;13.404;2023-08-12T13:01:02;7.00;;;3.20;;
18879;SDS011;9572;52.378;13.404;2023-08-12T13:03:30;4.53;;;3.05;;
18879;SDS011;9572;52.378;13.404;2023-08-12T13:05:58;5.85;;;3.55;;
18879;SDS011;9572;52.378;13.404;2023-08-12T13:08:27;3.65;;;3.35;;
18879;SDS011;9572;52.378;13.404;2023-08-12T13:10:54;4.28;;;3.28;;
18879;SDS011;9572;52.378;13.404;2023-08-12T13:13:21;3.40;;;3.05;;
18879;SDS011;9572;52.378;13.404;2023-08-12T13:15:48;10.23;;;3.22;;
18879;SDS011;9572;52.378;13.404;2023-08-12T13:18:15;3.88;;;3.47;;
18879;SDS011;9572;52.378;13.404;2023-08-12T13:20:42;3.38;;;3.00;;
18879;SDS011;9572;52.378;13.404;2023-08-12T13:23:09;5.13;;;3.15;;
18879;SDS011;9572;52.378;13.404;2023-08-12T13:25:38;5.20;;;3.00;;
18879;SDS011;9572;52.378;13.404;2023-08-12T13:28:05;4.00;;;3.08;;
18879;SDS011;9572;52.378;13.404;2023-08-12T13:30:33;2.95;;;2.70;;
18879;SDS011;9572;52.378;13.404;2023-08-12T13:33:00;3.10;;;2.78;;
18879;SDS011;9572;52.378;13.404;2023-08-12T13:35:29;2.88;;;2.60;;
18879;SDS011;9572;52.378;13.404;2023-08-12T13:37:56;3.83;;;2.72;;
18879;SDS011;9572;52.378;13.404;2023-08-12T13:40:23;3.10;;;2.90;;
18879;SDS011;9572;52.378;13.404;2023-08-12T13:42:52;5.22;;;2.67;;
18879;SDS011;9572;52.378;13.404;2023-08-12T13:45:18;3.30;;;2.80;;
18879;SDS011;9572;52.378;13.404;2023-08-12T13:47:45;5.32;;;2.88;;
18879;SDS011;9572;52.378;13.404;2023-08-12T13:50:12;3.20;;;2.90;;
18879;SDS011;9572;52.378;13.404;2023-08-12T13:52:39;3.28;;;2.97;;
18879;SDS011;9572;52.378;13.404;2023-08-12T13:55:07;4.10;;;2.80;;
18879;SDS011;9572;52.378;13.404;2023-08-12T13:57:34;2.92;;;2.67;;
18879;SDS011;9572;52.378;13.404;2023-08-12T14:00:03;2.92;;;2.58;;
18879;SDS011;9572;52.378;13.404;2023-08-12T14:02:35;3.10;;;2.78;;
18879;SDS011;9572;52.378;13.404;2023-08-12T14:05:02;4.38;;;2.72;;
18879;SDS011;9572;52.378;13.404;2023-08-12T14:07:29;2.92;;;2.30;;
18879;SDS011;9572;52.378;13.404;2023-08-12T14:09:56;2.60;;;2.40;;
18879;SDS011;9572;52.378;13.404;2023-08-12T14:12:23;2.50;;;2.30;;
18879;SDS011;9572;52.378;13.404;2023-08-12T14:14:50;4.10;;;2.25;;
18879;SDS011;9572;52.378;13.404;2023-08-12T14:17:19;5.40;;;2.90;;
18879;SDS011;9572;52.378;13.404;2023-08-12T14:19:48;2.95;;;2.47;;
18879;SDS011;9572;52.378;13.404;2023-08-12T14:22:16;4.10;;;2.55;;
18879;SDS011;9572;52.378;13.404;2023-08-12T14:24:43;4.43;;;2.85;;
18879;SDS011;9572;52.378;13.404;2023-08-12T14:27:10;4.90;;;2.50;;
18879;SDS011;9572;52.378;13.404;2023-08-12T14:29:37;4.47;;;2.70;;
18879;SDS011;9572;52.378;13.404;2023-08-12T14:32:05;2.90;;;2.63;;
18879;SDS011;9572;52.378;13.404;2023-08-12T14:34:33;2.92;;;2.60;;
18879;SDS011;9572;52.378;13.404;2023-08-12T14:37:02;2.47;;;2.28;;
18879;SDS011;9572;52.378;13.404;2023-08-12T14:39:29;2.47;;;2.28;;
18879;SDS011;9572;52.378;13.404;2023-08-12T14:41:56;3.25;;;2.42;;
18879;SDS011;9572;52.378;13.404;2023-08-12T14:44:23;2.47;;;2.28;;
18879;SDS011;9572;52.378;13.404;2023-08-12T14:46:51;2.95;;;2.63;;
18879;SDS011;9572;52.378;13.404;2023-08-12T14:49:18;3.47;;;2.58;;
18879;SDS011;9572;52.378;13.404;2023-08-12T14:51:46;2.60;;;2.40;;
18879;SDS011;9572;52.378;13.404;2023-08-12T14:54:13;3.50;;;2.38;;
18879;SDS011;9572;52.378;13.404;2023-08-12T14:56:40;5.10;;;2.67;;
18879;SDS011;9572;52.378;13.404;2023-08-12T14:59:08;3.90;;;2.70;;